Time;durP1;ratioP1;P1;durP2;ratioP2;P2;SDS_P1;SDS_P2;PMS_P1;PMS_P2;Temp;Humidity;BMP_temperature;BMP_pressure;BME280_temperature;BME280_humidity;BME280_pressure;Samples;Min_cycle;Max_cycle;Signal;HPM_P1;HPM_P2
2023/04/22 00:02:15;;;;;;;7.32;5.70;;;12.50;99.90;;;;;;5053177;28;20056;-56
2023/04/22 00:04:41;;;;;;;10.65;7.45;;;12.50;99.90;;;;;;5053200;28;20027;-56
2023/04/22 00:07:07;;;;;;;7.22;6.53;;;12.50;99.90;;;;;;5053415;28;20467;-53
2023/04/22 00:09:32;;;;;;;11.77;6.72;;;12.60;99.90;;;;;;5052805;28;20037;-55
2023/04/22 00:11:58;;;;;;;9.80;5.95;;;12.60;99.90;;;;;;5053101;28;20029;-57
2023/04/22 00:14:24;;;;;;;7.45;5.30;;;12.60;99.90;;;;;;5052951;28;20100;-56
2023/04/22 00:16:49;;;;;;;8.68;5.25;;;12.60;99.90;;;;;;5053001;28;20480;-54
2023/04/22 00:19:15;;;;;;;10.95;6.22;;;12.60;99.90;;;;;;5052398;28;20281;-50
2023/04/22 00:21:41;;;;;;;9.05;5.40;;;12.60;99.90;;;;;;5053024;28;20061;-51
2023/04/22 00:24:06;;;;;;;8.00;4.90;;;12.60;99.90;;;;;;5052694;28;20511;-50
2023/04/22 00:26:32;;;;;;;7.05;4.95;;;12.70;99.90;;;;;;5052898;28;20036;-56
2023/04/22 00:28:57;;;;;;;7.88;5.70;;;12.70;99.90;;;;;;5052746;28;20493;-53
2023/04/22 00:31:23;;;;;;;7.95;5.82;;;12.70;99.90;;;;;;5052690;28;20029;-50
2023/04/22 00:33:49;;;;;;;10.65;5.25;;;12.70;99.90;;;;;;5052892;28;20041;-54
2023/04/22 00:36:15;;;;;;;5.55;4.63;;;12.70;99.90;;;;;;5052624;28;20021;-55
2023/04/22 00:38:47;;;;;;;8.60;5.60;;;12.70;99.90;;;;;;5052455;28;20487;-53
2023/04/22 00:41:13;;;;;;;7.50;5.70;;;12.60;99.90;;;;;;5052586;28;20029;-57
2023/04/22 00:43:38;;;;;;;6.97;5.60;;;12.50;99.90;;;;;;5052182;28;20021;-56
2023/04/22 00:46:04;;;;;;;7.38;5.93;;;12.50;99.90;;;;;;5052343;28;20403;-54
2023/04/22 00:48:30;;;;;;;6.28;5.32;;;12.40;99.90;;;;;;5034766;28;20056;-53
2023/04/22 00:50:56;;;;;;;6.20;5.60;;;12.50;99.90;;;;;;5052219;28;20042;-52
2023/04/22 00:53:21;;;;;;;8.60;5.07;;;12.50;99.90;;;;;;5052530;28;20033;-56
2023/04/22 00:55:47;;;;;;;9.88;5.68;;;12.50;99.90;;;;;;5051968;28;20037;-56
2023/04/22 00:58:13;;;;;;;7.65;5.63;;;12.50;99.90;;;;;;5052189;28;20025;-52
2023/04/22 01:00:38;;;;;;;9.20;5.90;;;12.50;99.90;;;;;;5052198;28;20033;-55
2023/04/22 01:03:06;;;;;;;8.73;5.25;;;12.40;99.90;;;;;;5052122;28;20104;-53
2023/04/22 01:05:32;;;;;;;6.60;5.43;;;12.40;99.90;;;;;;5051957;28;20036;-54
2023/04/22 01:07:58;;;;;;;10.95;5.72;;;12.40;99.90;;;;;;5052039;28;20020;-56
2023/04/22 01:10:23;;;;;;;5.90;5.18;;;12.40;99.90;;;;;;5051833;28;20099;-58
2023/04/22 01:12:49;;;;;;;10.40;5.90;;;12.40;99.90;;;;;;5051790;28;20536;-55
2023/04/22 01:15:15;;;;;;;8.27;6.18;;;12.40;99.90;;;;;;5051714;28;20449;-51
2023/04/22 01:17:40;;;;;;;9.05;6.15;;;12.30;99.90;;;;;;5051878;28;20052;-52
2023/04/22 01:20:09;;;;;;;7.13;6.13;;;12.20;99.90;;;;;;5051478;28;20064;-54
2023/04/22 01:22:39;;;;;;;8.98;6.50;;;12.20;99.90;;;;;;5052080;28;20091;-52
2023/04/22 01:25:05;;;;;;;7.22;5.70;;;12.10;99.90;;;;;;5051787;28;20025;-55
2023/04/22 01:27:31;;;;;;;9.15;5.90;;;12.10;99.90;;;;;;5051730;28;20017;-51
2023/04/22 01:29:57;;;;;;;7.45;6.38;;;12.00;99.90;;;;;;5051692;28;20031;-54
2023/04/22 01:32:23;;;;;;;8.73;6.75;;;12.00;99.90;;;;;;5050644;28;20032;-54
2023/04/22 01:34:48;;;;;;;7.60;6.70;;;12.00;99.90;;;;;;5051427;28;20025;-53
2023/04/22 01:37:14;;;;;;;9.38;7.15;;;12.00;99.90;;;;;;5051427;28;20029;-55
2023/04/22 01:39:40;;;;;;;8.77;7.57;;;12.00;99.90;;;;;;5051068;28;20032;-53
2023/04/22 01:42:05;;;;;;;10.57;7.78;;;12.00;99.90;;;;;;5051473;28;20041;-53
2023/04/22 01:44:31;;;;;;;10.13;6.85;;;11.90;99.90;;;;;;5051307;28;20417;-52
2023/04/22 01:46:56;;;;;;;10.65;7.18;;;11.90;99.90;;;;;;5051707;28;20063;-51
2023/04/22 01:49:22;;;;;;;10.40;6.57;;;11.90;99.90;;;;;;5033474;28;20031;-52
2023/04/22 01:51:47;;;;;;;9.48;6.80;;;11.90;99.90;;;;;;5050947;28;20040;-51
2023/04/22 01:54:14;;;;;;;7.22;6.30;;;11.90;99.90;;;;;;5051075;28;20033;-56
2023/04/22 01:56:40;;;;;;;10.88;6.75;;;11.90;99.90;;;;;;5051356;28;20099;-51
2023/04/22 01:59:07;;;;;;;7.00;6.22;;;;;;;;;;5051244;28;20104;-53
2023/04/22 02:01:33;;;;;;;7.22;6.07;;;11.90;99.90;;;;;;5051198;28;20025;-54
2023/04/22 02:03:59;;;;;;;7.03;5.30;;;11.90;99.90;;;;;;5051314;28;20025;-55
2023/04/22 02:06:24;;;;;;;7.93;5.97;;;11.90;99.90;;;;;;5051489;28;20083;-55
2023/04/22 02:08:50;;;;;;;10.85;5.68;;;11.80;99.90;;;;;;5051392;28;20021;-50
2023/04/22 02:11:15;;;;;;;7.00;6.22;;;11.80;99.90;;;;;;5051371;28;20071;-56
2023/04/22 02:13:41;;;;;;;6.38;5.78;;;11.80;99.90;;;;;;5033782;28;20025;-55
2023/04/22 02:16:07;;;;;;;7.13;5.55;;;11.80;99.90;;;;;;5051546;28;20442;-54
2023/04/22 02:18:33;;;;;;;9.48;6.38;;;11.80;99.90;;;;;;5051241;28;20025;-53
2023/04/22 02:20:58;;;;;;;10.25;6.38;;;11.80;99.90;;;;;;5051025;28;20082;-56
2023/04/22 02:23:24;;;;;;;7.68;6.10;;;11.80;99.90;;;;;;5051129;28;20504;-53
2023/04/22 02:25:50;;;;;;;7.18;5.97;;;11.80;99.90;;;;;;5050600;28;20036;-54
2023/04/22 02:28:17;;;;;;;8.15;5.78;;;11.70;99.90;;;;;;5050977;28;20039;-53
2023/04/22 02:30:42;;;;;;;8.48;5.38;;;11.80;99.90;;;;;;5050906;28;20401;-54
2023/04/22 02:33:08;;;;;;;6.57;5.80;;;11.80;99.90;;;;;;5051021;28;20025;-57
2023/04/22 02:35:33;;;;;;;8.65;6.13;;;11.80;99.90;;;;;;5032789;28;20029;-57
2023/04/22 02:37:59;;;;;;;7.95;5.78;;;11.90;99.90;;;;;;5050692;28;20396;-56
2023/04/22 02:40:24;;;;;;;11.80;5.75;;;12.00;99.90;;;;;;5050867;28;20025;-56
2023/04/22 02:42:50;;;;;;;7.03;6.10;;;12.00;99.90;;;;;;5034668;28;20056;-52
2023/04/22 02:45:15;;;;;;;6.38;5.25;;;11.90;99.90;;;;;;5036824;28;20112;-55
2023/04/22 02:47:41;;;;;;;8.07;5.80;;;11.90;99.90;;;;;;5054803;28;20021;-53
2023/04/22 02:50:07;;;;;;;9.32;6.75;;;11.80;99.90;;;;;;5054519;28;20025;-54
2023/04/22 02:52:33;;;;;;;7.43;5.28;;;11.80;99.90;;;;;;5054371;28;20112;-53
2023/04/22 02:54:59;;;;;;;10.43;5.55;;;11.70;99.90;;;;;;5054309;28;20500;-52
2023/04/22 02:57:24;;;;;;;7.80;5.57;;;11.70;99.90;;;;;;5054533;28;20068;-49
2023/04/22 02:59:50;;;;;;;7.97;5.90;;;11.70;99.90;;;;;;5036127;28;20025;-54
2023/04/22 03:02:15;;;;;;;10.75;5.20;;;11.70;99.90;;;;;;5054196;28;20029;-53
2023/04/22 03:04:41;;;;;;;10.00;5.80;;;11.70;99.90;;;;;;5054048;28;20021;-53
2023/04/22 03:07:06;;;;;;;6.43;5.65;;;11.70;99.90;;;;;;5054185;28;20031;-54
2023/04/22 03:09:32;;;;;;;9.27;6.20;;;11.70;99.90;;;;;;5054123;28;20029;-53
2023/04/22 03:11:57;;;;;;;6.50;5.75;;;11.60;99.90;;;;;;5054197;28;20486;-50
2023/04/22 03:14:23;;;;;;;7.07;5.88;;;11.60;99.90;;;;;;5054278;28;20046;-52
2023/04/22 03:16:49;;;;;;;8.13;5.10;;;11.50;99.90;;;;;;5054292;28;20017;-51
2023/04/22 03:19:15;;;;;;;6.05;5.20;;;11.50;99.90;;;;;;5054080;28;20365;-56
2023/04/22 03:21:40;;;;;;;7.63;5.78;;;11.50;99.90;;;;;;5054034;28;20024;-52
2023/04/22 03:24:06;;;;;;;9.60;6.18;;;11.40;99.90;;;;;;5053699;28;20021;-55
2023/04/22 03:26:31;;;;;;;7.78;6.40;;;11.40;99.90;;;;;;5053880;28;20033;-54
2023/04/22 03:28:57;;;;;;;7.43;6.40;;;11.40;99.90;;;;;;5053791;28;20057;-51
2023/04/22 03:31:22;;;;;;;7.85;6.45;;;11.30;99.90;;;;;;5053847;28;20029;-55
2023/04/22 03:33:48;;;;;;;7.78;6.30;;;11.20;99.90;;;;;;5053500;28;20508;-56
2023/04/22 03:36:13;;;;;;;6.40;5.80;;;11.10;99.90;;;;;;5054152;28;20027;-54
2023/04/22 03:38:39;;;;;;;8.35;7.28;;;11.10;99.90;;;;;;5053532;28;20021;-53
2023/04/22 03:41:05;;;;;;;6.28;5.65;;;11.00;99.90;;;;;;5053858;28;20040;-54
2023/04/22 03:43:30;;;;;;;11.10;6.03;;;11.00;99.90;;;;;;5053689;28;20548;-55
2023/04/22 03:45:56;;;;;;;8.38;6.45;;;11.00;99.90;;;;;;5053212;28;20037;-52
2023/04/22 03:48:21;;;;;;;7.85;6.70;;;11.00;99.90;;;;;;5053544;28;20396;-54
2023/04/22 03:50:47;;;;;;;10.07;6.90;;;10.90;99.90;;;;;;5053277;28;20021;-54
2023/04/22 03:53:12;;;;;;;7.63;6.95;;;10.90;99.90;;;;;;5053355;28;20021;-56
2023/04/22 03:55:38;;;;;;;11.10;6.65;;;10.80;99.90;;;;;;5052179;28;20033;-51
2023/04/22 03:58:03;;;;;;;8.27;6.00;;;10.80;99.90;;;;;;5053488;28;20040;-54
2023/04/22 04:00:29;;;;;;;7.25;5.90;;;10.70;99.90;;;;;;5053314;28;20032;-50
2023/04/22 04:02:54;;;;;;;10.75;7.30;;;10.80;99.90;;;;;;5053543;28;20025;-52
2023/04/22 04:05:20;;;;;;;7.45;6.50;;;10.80;99.90;;;;;;5052810;28;20033;-52
2023/04/22 04:07:46;;;;;;;9.82;6.93;;;10.70;99.90;;;;;;5053373;28;20554;-51
2023/04/22 04:10:11;;;;;;;10.10;6.70;;;10.70;99.90;;;;;;5053875;28;20026;-51
2023/04/22 04:12:37;;;;;;;8.60;6.60;;;10.80;99.90;;;;;;5053725;28;20025;-52
2023/04/22 04:15:03;;;;;;;9.25;6.95;;;10.80;99.90;;;;;;5053035;28;20484;-56
2023/04/22 04:17:29;;;;;;;10.35;7.03;;;10.90;99.90;;;;;;5053528;28;20100;-56
2023/04/22 04:19:54;;;;;;;9.10;6.40;;;10.90;99.90;;;;;;5052793;28;20028;-54
2023/04/22 04:22:20;;;;;;;7.47;6.38;;;10.90;99.90;;;;;;5053255;28;20028;-53
2023/04/22 04:24:46;;;;;;;8.45;7.15;;;11.00;99.90;;;;;;5052808;28;20400;-50
2023/04/22 04:27:12;;;;;;;8.50;6.38;;;11.00;99.90;;;;;;5052864;28;20021;-55
2023/04/22 04:29:40;;;;;;;8.15;5.97;;;11.00;99.90;;;;;;5052685;28;20036;-53
2023/04/22 04:32:09;;;;;;;7.97;5.82;;;10.90;99.90;;;;;;5052704;28;20048;-52
2023/04/22 04:34:36;;;;;;;8.48;6.80;;;10.90;99.90;;;;;;5052495;28;20059;-53
2023/04/22 04:37:02;;;;;;;9.25;7.22;;;10.90;99.90;;;;;;5052810;28;20021;-54
2023/04/22 04:39:28;;;;;;;8.38;6.43;;;10.80;99.90;;;;;;5051977;28;20013;-55
2023/04/22 04:41:54;;;;;;;9.77;6.45;;;10.70;99.90;;;;;;5052708;28;20032;-54
2023/04/22 04:44:20;;;;;;;10.27;6.57;;;10.70;99.90;;;;;;5052449;28;20021;-57
2023/04/22 04:46:46;;;;;;;8.88;6.75;;;10.60;99.90;;;;;;5052469;28;20396;-55
2023/04/22 04:49:12;;;;;;;7.72;6.78;;;10.60;99.90;;;;;;5052582;28;20029;-55
2023/04/22 04:51:38;;;;;;;7.85;7.05;;;10.60;99.90;;;;;;5052513;28;20546;-54
2023/04/22 04:54:03;;;;;;;10.55;6.57;;;10.60;99.90;;;;;;5051958;28;20036;-54
2023/04/22 04:56:29;;;;;;;7.68;6.97;;;10.60;99.90;;;;;;5052475;28;20040;-59
2023/04/22 04:58:55;;;;;;;8.63;6.93;;;10.60;99.90;;;;;;5052032;28;20466;-53
2023/04/22 05:01:21;;;;;;;7.70;6.95;;;10.60;99.90;;;;;;5052375;28;20428;-54
2023/04/22 05:03:46;;;;;;;8.35;6.78;;;10.60;99.90;;;;;;5052199;28;20053;-55
2023/04/22 05:06:12;;;;;;;9.68;6.85;;;10.60;99.90;;;;;;5052369;28;20048;-53
2023/04/22 05:08:37;;;;;;;6.50;5.80;;;10.60;99.90;;;;;;5052099;28;20500;-52
2023/04/22 05:11:03;;;;;;;6.78;6.07;;;10.60;99.90;;;;;;5051864;28;20488;-50
2023/04/22 05:13:28;;;;;;;10.38;6.68;;;10.70;99.90;;;;;;5051789;28;20473;-52
2023/04/22 05:15:54;;;;;;;10.38;7.10;;;10.70;99.90;;;;;;5051815;28;20071;-52
2023/04/22 05:18:20;;;;;;;9.23;7.13;;;10.70;99.90;;;;;;5051871;28;20025;-56
2023/04/22 05:20:46;;;;;;;8.55;6.72;;;10.80;99.90;;;;;;5033942;28;20052;-55
2023/04/22 05:23:11;;;;;;;8.07;6.82;;;10.80;99.90;;;;;;5052090;28;20024;-56
2023/04/22 05:25:37;;;;;;;8.50;7.10;;;10.90;99.90;;;;;;5033764;28;20028;-53
2023/04/22 05:28:03;;;;;;;9.15;7.10;;;10.90;99.90;;;;;;5051875;28;20025;-56
2023/04/22 05:30:28;;;;;;;8.88;7.72;;;10.90;99.90;;;;;;5052057;28;20032;-59
2023/04/22 05:32:54;;;;;;;7.47;6.72;;;11.00;99.90;;;;;;5051599;28;20029;-51
2023/04/22 05:35:19;;;;;;;7.18;6.47;;;11.10;99.90;;;;;;5051444;28;20040;-53
2023/04/22 05:37:45;;;;;;;9.90;7.28;;;11.20;99.90;;;;;;5033465;28;20025;-49
2023/04/22 05:40:10;;;;;;;11.48;6.85;;;11.30;99.90;;;;;;5034189;28;20017;-54
2023/04/22 05:42:36;;;;;;;8.57;6.80;;;11.50;99.90;;;;;;5033810;28;20492;-53
2023/04/22 05:45:02;;;;;;;9.57;7.35;;;11.80;99.90;;;;;;5050940;28;20028;-55
2023/04/22 05:47:29;;;;;;;7.55;6.28;;;12.50;99.90;;;;;;5051505;28;20027;-51
2023/04/22 05:49:54;;;;;;;10.57;7.25;;;13.40;99.90;;;;;;5051279;28;20040;-50
2023/04/22 05:52:20;;;;;;;14.20;7.35;;;14.00;99.90;;;;;;5051268;28;20021;-55
2023/04/22 05:54:45;;;;;;;7.32;6.47;;;14.30;99.90;;;;;;5051111;28;20090;-52
2023/04/22 05:57:11;;;;;;;8.55;5.95;;;14.60;99.90;;;;;;5051368;28;20024;-52
2023/04/22 05:59:37;;;;;;;6.90;5.80;;;15.10;99.90;;;;;;5051193;28;20484;-52
2023/04/22 06:02:02;;;;;;;8.82;5.68;;;15.40;99.90;;;;;;5051284;28;20029;-53
2023/04/22 06:04:28;;;;;;;6.07;5.35;;;15.30;99.90;;;;;;5051092;28;20106;-51
2023/04/22 06:06:54;;;;;;;7.38;5.78;;;14.90;99.90;;;;;;5051158;28;20143;-52
2023/04/22 06:09:21;;;;;;;11.90;6.68;;;14.90;99.90;;;;;;5051125;28;20503;-52
2023/04/22 06:11:46;;;;;;;6.32;4.95;;;15.00;99.90;;;;;;5051180;28;20025;-51
2023/04/22 06:14:12;;;;;;;5.63;5.13;;;15.00;99.90;;;;;;5050799;28;20033;-50
2023/04/22 06:16:38;;;;;;;6.40;5.70;;;15.00;99.90;;;;;;5051167;28;20057;-53
2023/04/22 06:19:05;;;;;;;6.18;5.57;;;15.30;99.90;;;;;;5054888;28;20096;-53
2023/04/22 06:21:32;;;;;;;6.70;5.28;;;15.30;99.90;;;;;;5055038;28;20029;-50
2023/04/22 06:24:01;;;;;;;5.57;4.95;;;15.60;99.90;;;;;;5054792;28;20027;-55
2023/04/22 06:26:26;;;;;;;5.85;5.28;;;15.50;99.90;;;;;;5055163;28;20104;-53
2023/04/22 06:28:52;;;;;;;5.60;5.10;;;15.60;99.90;;;;;;5054984;28;20109;-50
2023/04/22 06:31:17;;;;;;;6.05;5.45;;;15.40;99.90;;;;;;5054876;28;20061;-55
2023/04/22 06:33:43;;;;;;;8.63;5.88;;;15.40;99.90;;;;;;5054954;28;20388;-53
2023/04/22 06:36:08;;;;;;;10.52;5.95;;;15.50;99.90;;;;;;5054936;28;20021;-53
2023/04/22 06:38:34;;;;;;;8.77;5.25;;;15.70;99.90;;;;;;5054618;28;20480;-52
2023/04/22 06:41:00;;;;;;;8.73;4.93;;;15.90;99.90;;;;;;5054732;28;20025;-55
2023/04/22 06:43:25;;;;;;;6.53;5.78;;;16.20;99.90;;;;;;5054778;28;20055;-50
2023/04/22 06:45:51;;;;;;;9.30;6.28;;;16.60;99.90;;;;;;5054180;28;20056;-52
2023/04/22 06:48:16;;;;;;;5.45;4.68;;;17.40;99.90;;;;;;5054654;28;20052;-52
2023/04/22 06:50:42;;;;;;;5.43;4.75;;;18.50;99.90;;;;;;5054532;28;20104;-56
2023/04/22 06:53:08;;;;;;;5.70;4.70;;;19.30;99.90;;;;;;5054456;28;20481;-50
2023/04/22 06:55:34;;;;;;;5.82;4.35;;;20.40;99.90;;;;;;5053667;28;20500;-55
2023/04/22 06:58:00;;;;;;;4.72;4.32;;;21.50;99.80;;;;;;5054453;28;20060;-50
2023/04/22 07:00:26;;;;;;;8.82;3.60;;;22.10;98.70;;;;;;5054383;28;20021;-55
2023/04/22 07:02:52;;;;;;;5.18;3.63;;;22.80;96.60;;;;;;5054404;28;20017;-53
2023/04/22 07:05:18;;;;;;;3.65;3.08;;;23.10;95.30;;;;;;5054277;28;20035;-50
2023/04/22 07:07:44;;;;;;;4.97;3.45;;;23.40;95.50;;;;;;5054331;28;20056;-52
2023/04/22 07:10:11;;;;;;;8.80;3.58;;;23.20;94.40;;;;;;5054214;28;20037;-51
2023/04/22 07:12:36;;;;;;;4.32;3.60;;;23.50;94.30;;;;;;5054223;28;20036;-51
2023/04/22 07:15:02;;;;;;;6.28;3.40;;;23.30;94.10;;;;;;5054064;28;20393;-49
2023/04/22 07:17:28;;;;;;;4.00;3.53;;;23.40;93.70;;;;;;5054270;28;20098;-51
2023/04/22 07:19:53;;;;;;;6.47;3.15;;;23.40;93.70;;;;;;5054013;28;20115;-50
2023/04/22 07:22:19;;;;;;;6.63;3.30;;;24.10;93.10;;;;;;5054096;28;20072;-53
2023/04/22 07:24:45;;;;;;;4.03;3.10;;;24.70;91.80;;;;;;5054006;28;20067;-50
2023/04/22 07:27:10;;;;;;;4.80;3.35;;;25.30;91.60;;;;;;5053951;28;20060;-50
2023/04/22 07:29:36;;;;;;;4.20;3.78;;;25.80;90.20;;;;;;5053692;28;20021;-53
2023/04/22 07:32:01;;;;;;;5.93;3.55;;;26.00;90.30;;;;;;5053456;28;20029;-50
2023/04/22 07:34:27;;;;;;;4.40;3.75;;;25.80;90.00;;;;;;5056828;28;20416;-53
2023/04/22 07:36:52;;;;;;;3.60;3.30;;;26.20;89.10;;;;;;5068145;28;20029;-48
2023/04/22 07:39:18;;;;;;;4.43;3.67;;;26.50;87.90;;;;;;5055663;28;20028;-52
2023/04/22 07:41:44;;;;;;;4.28;3.88;;;26.50;85.40;;;;;;5058451;28;20088;-50
2023/04/22 07:44:11;;;;;;;4.90;4.05;;;26.40;85.30;;;;;;5063627;28;20089;-52
2023/04/22 07:46:37;;;;;;;4.32;3.92;;;25.70;86.40;;;;;;5055334;28;20472;-53
2023/04/22 07:49:02;;;;;;;5.22;4.03;;;25.10;88.90;;;;;;5053772;28;20086;-52
2023/04/22 07:51:28;;;;;;;4.45;4.05;;;25.00;90.00;;;;;;5067813;28;20407;-55
2023/04/22 07:53:54;;;;;;;6.30;4.50;;;24.90;89.60;;;;;;5063701;28;20185;-55
2023/04/22 07:56:20;;;;;;;6.68;4.30;;;24.00;90.90;;;;;;5073087;28;20523;-50
2023/04/22 07:58:45;;;;;;;5.07;4.50;;;23.70;92.00;;;;;;5073458;28;20028;-52
2023/04/22 08:01:11;;;;;;;6.30;4.00;;;24.00;91.70;;;;;;5053685;28;20052;-53
2023/04/22 08:03:36;;;;;;;4.18;3.78;;;24.20;91.80;;;;;;5035733;28;20025;-50
2023/04/22 08:06:02;;;;;;;5.13;4.18;;;24.60;91.80;;;;;;5062938;28;20036;-51
2023/04/22 08:08:27;;;;;;;5.20;4.72;;;25.50;90.20;;;;;;5058810;28;20028;-56
2023/04/22 08:10:53;;;;;;;4.93;4.50;;;26.10;88.20;;;;;;5054287;28;20060;-53
2023/04/22 08:13:18;;;;;;;4.65;4.25;;;26.20;87.30;;;;;;5073101;28;20056;-55
2023/04/22 08:15:44;;;;;;;6.68;4.20;;;26.70;86.70;;;;;;5072812;28;20016;-51
2023/04/22 08:18:09;;;;;;;9.75;4.22;;;26.80;87.20;;;;;;5068644;28;20099;-52
2023/04/22 08:20:35;;;;;;;5.03;4.13;;;27.30;84.60;;;;;;5053009;28;20433;-45
2023/04/22 08:23:01;;;;;;;4.18;3.88;;;27.70;82.00;;;;;;5053502;28;20057;-51
2023/04/22 08:25:27;;;;;;;4.63;4.22;;;27.60;81.20;;;;;;5070811;28;20487;-54
2023/04/22 08:27:52;;;;;;;4.82;4.35;;;27.70;81.30;;;;;;5072583;28;20029;-54
2023/04/22 08:30:18;;;;;;;7.97;4.70;;;27.70;82.20;;;;;;5072455;28;20028;-52
2023/04/22 08:32:44;;;;;;;8.25;5.05;;;27.60;80.90;;;;;;5071552;28;20104;-55
2023/04/22 08:35:10;;;;;;;7.28;4.20;;;27.30;80.60;;;;;;5053496;28;20396;-52
2023/04/22 08:37:35;;;;;;;4.60;4.20;;;27.00;82.20;;;;;;5072050;28;20032;-50
2023/04/22 08:40:01;;;;;;;4.85;4.40;;;26.50;83.10;;;;;;5070737;28;20020;-54
2023/04/22 08:42:28;;;;;;;5.35;4.82;;;26.40;83.90;;;;;;5071297;28;20387;-51
2023/04/22 08:44:53;;;;;;;6.25;4.60;;;26.20;84.30;;;;;;5072027;28;20037;-50
2023/04/22 08:47:20;;;;;;;8.73;5.10;;;26.10;85.00;;;;;;5072881;28;20495;-51
2023/04/22 08:49:46;;;;;;;5.65;5.10;;;25.30;84.90;;;;;;5072632;28;20055;-54
2023/04/22 08:52:14;;;;;;;5.97;5.30;;;24.60;86.50;;;;;;5054492;28;20024;-51
2023/04/22 08:54:40;;;;;;;8.60;4.60;;;23.70;89.20;;;;;;5072312;28;20032;-53
2023/04/22 08:57:07;;;;;;;6.88;4.93;;;23.10;90.90;;;;;;5072580;28;20028;-50
2023/04/22 08:59:34;;;;;;;5.60;5.10;;;22.50;92.10;;;;;;5072419;28;20024;-51
2023/04/22 09:02:01;;;;;;;7.93;5.32;;;22.10;92.90;;;;;;5072213;28;20035;-51
2023/04/22 09:04:27;;;;;;;5.22;4.72;;;21.80;94.00;;;;;;5053928;28;20067;-51
2023/04/22 09:06:52;;;;;;;7.00;5.50;;;21.50;95.00;;;;;;5072098;28;20095;-50
2023/04/22 09:09:18;;;;;;;5.65;5.00;;;21.10;95.40;;;;;;5071746;28;20449;-51
2023/04/22 09:11:44;;;;;;;6.30;5.22;;;20.70;96.60;;;;;;5071941;28;20036;-49
2023/04/22 09:14:09;;;;;;;5.95;5.45;;;20.50;96.70;;;;;;5071218;28;20021;-50
2023/04/22 09:16:43;;;;;;;6.88;5.90;;;20.20;97.50;;;;;;5071961;28;20024;-55
2023/04/22 09:19:13;;;;;;;7.00;6.22;;;20.00;97.70;;;;;;5071976;28;20020;-49
2023/04/22 09:21:39;;;;;;;9.25;6.15;;;20.10;98.30;;;;;;5071857;28;20036;-53
2023/04/22 09:24:07;;;;;;;5.95;4.95;;;20.40;98.60;;;;;;5071426;28;20424;-51
2023/04/22 09:26:32;;;;;;;6.85;5.45;;;20.70;97.80;;;;;;5071696;28;20024;-50
2023/04/22 09:28:59;;;;;;;11.85;5.55;;;20.80;97.50;;;;;;5071590;28;20384;-50
2023/04/22 09:31:26;;;;;;;6.15;5.47;;;20.90;97.40;;;;;;5070923;28;20480;-49
2023/04/22 09:33:57;;;;;;;7.75;4.50;;;21.00;97.30;;;;;;5068565;28;20056;-52
2023/04/22 09:36:27;;;;;;;6.63;5.40;;;21.00;97.40;;;;;;5072260;28;20021;-50
2023/04/22 09:38:56;;;;;;;6.00;4.90;;;20.90;97.40;;;;;;5072100;28;20107;-47
2023/04/22 09:41:30;;;;;;;6.05;4.57;;;20.90;97.20;;;;;;5071804;28;20020;-53
2023/04/22 09:43:57;;;;;;;6.20;5.03;;;21.40;96.90;;;;;;5072047;28;20036;-51
2023/04/22 09:46:24;;;;;;;5.90;3.88;;;21.40;97.10;;;;;;5054215;28;20032;-53
2023/04/22 09:48:50;;;;;;;6.40;4.43;;;21.70;97.90;;;;;;5053973;28;20101;-51
2023/04/22 09:51:16;;;;;;;5.40;4.68;;;22.10;96.50;;;;;;5070838;28;20036;-51
2023/04/22 09:53:42;;;;;;;26.75;21.13;;;22.30;96.30;;;;;;5070764;28;20545;-52
2023/04/22 09:56:08;;;;;;;9.23;5.32;;;22.50;95.80;;;;;;5071677;28;20093;-49
2023/04/22 09:58:39;;;;;;;19.85;14.73;;;22.60;95.90;;;;;;5071779;28;20028;-52
2023/04/22 10:01:05;;;;;;;6.15;5.38;;;22.50;95.80;;;;;;5071697;28;20025;-56
2023/04/22 10:03:31;;;;;;;6.25;4.60;;;22.30;96.30;;;;;;5052800;28;20835;-50
2023/04/22 10:05:57;;;;;;;6.28;4.57;;;22.10;96.90;;;;;;5071263;28;20142;-49
2023/04/22 10:08:23;;;;;;;4.55;4.15;;;22.10;96.80;;;;;;5049720;28;20123;-48
2023/04/22 10:10:49;;;;;;;4.05;3.67;;;22.20;97.20;;;;;;5044799;28;20429;-48
2023/04/22 10:13:15;;;;;;;5.43;3.55;;;22.40;96.80;;;;;;5052319;28;20504;-51
2023/04/22 10:15:44;;;;;;;8.25;3.95;;;22.30;96.50;;;;;;5052808;28;20028;-56
2023/04/22 10:18:15;;;;;;;2.78;2.58;;;22.30;96.70;;;;;;5053359;28;20025;-59
2023/04/22 10:20:42;;;;;;;2.90;2.50;;;22.00;95.80;;;;;;5053260;28;20551;-59
2023/04/22 10:23:30;;;;;;;4.15;2.40;;;22.00;95.00;;;;;;5053361;28;20091;-58
2023/04/22 10:25:56;;;;;;;2.88;2.42;;;22.00;95.20;;;;;;5052866;28;20036;-56
2023/04/22 10:28:26;;;;;;;5.03;3.13;;;21.90;95.80;;;;;;5053348;28;20025;-56
2023/04/22 10:30:52;;;;;;;3.55;2.30;;;21.80;95.80;;;;;;5071298;28;20028;-55
2023/04/22 10:33:21;;;;;;;2.67;2.47;;;21.80;96.10;;;;;;5071381;28;20447;-57
2023/04/22 10:36:16;;;;;;;3.35;3.00;;;21.80;97.00;;;;;;5071178;28;20078;-54
2023/04/22 10:38:54;;;;;;;3.33;3.03;;;21.60;96.70;;;;;;5053546;28;20036;-52
2023/04/22 10:41:25;;;;;;;3.35;3.08;;;21.30;97.10;;;;;;5071517;28;20039;-56
2023/04/22 10:43:59;;;;;;;4.28;2.70;;;21.00;97.60;;;;;;5071229;28;20021;-57
2023/04/22 10:46:36;;;;;;;3.47;2.97;;;20.80;97.70;;;;;;5053545;28;20116;-57
2023/04/22 10:49:21;;;;;;;4.70;2.80;;;20.80;97.60;;;;;;5053370;28;20028;-57
2023/04/22 10:51:48;;;;;;;3.22;2.88;;;20.90;98.00;;;;;;5053361;28;20031;-54
2023/04/22 10:54:26;;;;;;;3.80;3.42;;;21.10;98.20;;;;;;5052998;28;20068;-56
2023/04/22 10:57:18;;;;;;;6.20;3.78;;;21.10;97.60;;;;;;5053520;28;20021;-56
2023/04/22 10:59:50;;;;;;;29.65;17.80;;;21.10;97.80;;;;;;5053121;28;20040;-58
2023/04/22 11:02:17;;;;;;;5.43;3.65;;;21.00;97.60;;;;;;5071294;28;20032;-57
2023/04/22 11:04:43;;;;;;;2.30;1.70;;;21.10;97.50;;;;;;5074141;28;20024;-57
2023/04/22 11:07:16;;;;;;;1.67;1.48;;;21.20;94.60;;;;;;5057220;28;20027;-58
2023/04/22 11:09:48;;;;;;;4.43;1.58;;;21.40;94.60;;;;;;5056887;28;20025;-59
2023/04/22 11:12:40;;;;;;;2.05;1.90;;;21.70;94.40;;;;;;5056652;28;20025;-58
2023/04/22 11:15:18;;;;;;;4.32;1.65;;;21.90;91.10;;;;;;5056507;28;20025;-58
2023/04/22 11:17:46;;;;;;;2.75;1.67;;;21.90;90.20;;;;;;5056888;28;20020;-60
2023/04/22 11:20:16;;;;;;;2.83;1.50;;;21.90;88.80;;;;;;5074486;28;20035;-48
2023/04/22 11:22:46;;;;;;;3.95;1.50;;;21.80;90.20;;;;;;5074430;28;20031;-54
2023/04/22 11:25:12;;;;;;;4.70;1.73;;;21.80;90.30;;;;;;5056165;28;20475;-50
2023/04/22 11:27:39;;;;;;;1.83;1.63;;;21.80;90.60;;;;;;5074435;28;20037;-52
2023/04/22 11:30:11;;;;;;;2.00;1.45;;;21.80;90.80;;;;;;5056126;28;20032;-52
2023/04/22 11:32:40;;;;;;;3.25;1.58;;;21.80;90.80;;;;;;5055839;28;20597;-52
2023/04/22 11:35:08;;;;;;;2.78;2.00;;;21.90;92.20;;;;;;5074163;28;20551;-48
2023/04/22 11:37:48;;;;;;;2.40;1.58;;;22.00;90.30;;;;;;5056232;28;20028;-50
2023/04/22 11:40:17;;;;;;;3.63;1.35;;;22.00;89.60;;;;;;5056705;28;20032;-55
2023/04/22 11:42:43;;;;;;;3.03;1.42;;;22.00;90.00;;;;;;5074023;28;20047;-49
2023/04/22 11:45:09;;;;;;;1.88;1.58;;;22.00;89.50;;;;;;5055971;28;20643;-51
2023/04/22 11:47:35;;;;;;;2.33;1.52;;;22.00;89.50;;;;;;5056048;28;20656;-51
2023/04/22 11:50:05;;;;;;;2.40;1.80;;;22.00;90.60;;;;;;5073933;28;20025;-50
2023/04/22 11:52:57;;;;;;;2.92;1.35;;;22.00;90.00;;;;;;5073840;28;20542;-50
2023/04/22 11:55:29;;;;;;;5.28;1.40;;;22.00;89.60;;;;;;5072676;28;20036;-52
2023/04/22 11:58:09;;;;;;;3.97;1.48;;;21.90;87.10;;;;;;5073951;28;20113;-49
2023/04/22 12:00:39;;;;;;;3.90;1.70;;;21.80;89.80;;;;;;5073628;28;20120;-53
2023/04/22 12:03:25;;;;;;;4.63;1.83;;;21.90;89.30;;;;;;5073744;28;20044;-51
2023/04/22 12:06:04;;;;;;;31.05;21.42;;;22.00;89.40;;;;;;5055168;28;20397;-50
2023/04/22 12:08:32;;;;;;;31.20;21.10;;;22.00;88.60;;;;;;5073706;28;20024;-54
2023/04/22 12:11:05;;;;;;;6.35;5.30;;;22.10;90.40;;;;;;5055318;28;20115;-51
2023/04/22 12:13:40;;;;;;;1.90;1.65;;;22.10;89.00;;;;;;5073478;28;20388;-48
2023/04/22 12:16:14;;;;;;;3.63;1.20;;;22.20;86.90;;;;;;5054481;28;20027;-48
2023/04/22 12:18:47;;;;;;;1.88;1.60;;;22.20;86.50;;;;;;5055462;28;20117;-55
2023/04/22 12:21:16;;;;;;;1.42;1.33;;;22.10;87.10;;;;;;5073017;28;20071;-56
2023/04/22 12:23:44;;;;;;;2.50;1.90;;;22.10;88.10;;;;;;5055091;28;20115;-52
2023/04/22 12:26:14;;;;;;;2.83;2.58;;;22.10;88.40;;;;;;5054825;28;20400;-51
2023/04/22 12:28:41;;;;;;;3.92;1.55;;;22.10;87.40;;;;;;5055354;28;20035;-51
2023/04/22 12:31:07;;;;;;;2.17;1.70;;;22.00;87.70;;;;;;5055294;28;20029;-55
2023/04/22 12:33:34;;;;;;;1.73;1.63;;;21.90;89.80;;;;;;5055121;28;20024;-54
2023/04/22 12:35:59;;;;;;;2.90;1.58;;;22.00;89.30;;;;;;5072933;28;20021;-52
2023/04/22 12:38:25;;;;;;;1.85;1.58;;;22.00;88.00;;;;;;5054625;28;20071;-56
2023/04/22 12:40:51;;;;;;;2.35;2.10;;;22.00;88.90;;;;;;5072838;28;20499;-55
2023/04/22 12:43:17;;;;;;;1.60;1.50;;;22.10;89.50;;;;;;5054883;28;20051;-56
2023/04/22 12:45:43;;;;;;;4.78;1.65;;;22.10;89.00;;;;;;5054728;28;20270;-51